createdAt,value
2018-09-03T00:01:57.737Z,6.25
2018-09-03T00:04:26.571Z,6.03
2018-09-03T00:06:55.384Z,6.65
2018-09-03T00:09:24.142Z,5.17
2018-09-03T00:11:53.015Z,5.95
2018-09-03T00:14:21.767Z,6.00
2018-09-03T00:16:50.674Z,6.20
2018-09-03T00:19:19.455Z,5.53
2018-09-03T00:21:48.222Z,6.92
2018-09-03T00:24:17.060Z,5.97
2018-09-03T00:26:45.818Z,6.30
2018-09-03T00:29:14.633Z,6.20
2018-09-03T00:31:48.713Z,5.55
2018-09-03T00:34:22.872Z,6.87
2018-09-03T00:36:57.048Z,6.40
2018-09-03T00:39:31.147Z,6.42
2018-09-03T00:42:05.156Z,6.95
2018-09-03T00:44:39.370Z,6.28
2018-09-03T00:47:09.826Z,6.50
2018-09-03T00:49:38.661Z,6.70
2018-09-03T00:52:07.547Z,6.50
2018-09-03T00:54:37.483Z,6.33
2018-09-03T00:57:06.365Z,6.12
2018-09-03T00:59:35.226Z,6.47
2018-09-03T01:02:04.185Z,7.17
2018-09-03T01:04:32.987Z,6.78
2018-09-03T01:07:01.845Z,7.10
2018-09-03T01:09:30.654Z,6.75
2018-09-03T01:11:59.451Z,7.20
2018-09-03T01:14:28.329Z,7.62
2018-09-03T01:16:57.216Z,7.95
2018-09-03T01:19:26.060Z,8.05
2018-09-03T01:21:54.843Z,8.30
2018-09-03T01:24:23.653Z,8.10
2018-09-03T01:26:52.467Z,8.43
2018-09-03T01:29:21.241Z,9.55
2018-09-03T01:31:53.090Z,9.23
2018-09-03T01:34:21.890Z,9.05
2018-09-03T01:36:50.708Z,8.88
2018-09-03T01:39:19.568Z,9.28
2018-09-03T01:41:48.380Z,9.08
2018-09-03T01:44:17.193Z,9.30
2018-09-03T01:46:46.137Z,10.30
2018-09-03T01:49:14.935Z,9.90
2018-09-03T01:51:43.748Z,10.35
2018-09-03T01:54:12.595Z,9.65
2018-09-03T01:56:41.420Z,10.23
2018-09-03T01:59:10.274Z,10.80
2018-09-03T02:01:39.160Z,10.80
2018-09-03T02:04:08.056Z,10.23
2018-09-03T02:06:36.996Z,11.08
2018-09-03T02:09:09.220Z,11.25
2018-09-03T02:11:38.547Z,10.45
2018-09-03T02:14:07.419Z,11.22
2018-09-03T02:16:37.023Z,10.85
2018-09-03T02:19:06.224Z,11.03
2018-09-03T02:21:35.060Z,10.88
2018-09-03T02:24:03.967Z,10.58
2018-09-03T02:26:33.030Z,11.68
2018-09-03T02:29:01.899Z,11.90
2018-09-03T02:31:30.722Z,11.20
2018-09-03T02:33:59.505Z,11.95
2018-09-03T02:36:28.320Z,10.98
2018-09-03T02:38:57.129Z,13.32
2018-09-03T02:41:25.955Z,11.85
2018-09-03T02:43:54.805Z,12.65
2018-09-03T02:46:23.601Z,12.58
2018-09-03T02:48:52.385Z,12.28
2018-09-03T02:51:21.210Z,12.28
2018-09-03T02:53:50.647Z,12.40
2018-09-03T02:56:19.474Z,12.43
2018-09-03T02:58:48.322Z,12.53
2018-09-03T03:01:17.125Z,12.18
2018-09-03T03:03:45.943Z,13.70
2018-09-03T03:06:14.768Z,13.30
2018-09-03T03:08:44.047Z,13.20
2018-09-03T03:11:12.866Z,13.58
2018-09-03T03:13:41.646Z,13.90
2018-09-03T03:16:10.468Z,13.65
2018-09-03T03:18:39.261Z,12.75
2018-09-03T03:21:08.076Z,13.72
2018-09-03T03:23:37.026Z,12.68
2018-09-03T03:26:05.855Z,13.05
2018-09-03T03:28:34.698Z,13.10
2018-09-03T03:31:03.581Z,14.00
2018-09-03T03:33:32.391Z,14.13
2018-09-03T03:36:01.167Z,14.63
2018-09-03T03:38:29.944Z,13.65
2018-09-03T03:40:58.738Z,13.78
2018-09-03T03:43:27.527Z,14.45
2018-09-03T03:45:56.353Z,14.25
2018-09-03T03:48:25.162Z,15.43
2018-09-03T03:50:53.917Z,15.13
2018-09-03T03:53:22.735Z,15.03
2018-09-03T03:55:51.543Z,15.53
2018-09-03T03:58:20.439Z,16.87
2018-09-03T04:00:49.309Z,15.78
2018-09-03T04:03:18.173Z,16.05
2018-09-03T04:05:46.911Z,14.50
2018-09-03T04:08:15.737Z,16.37
2018-09-03T04:10:44.551Z,15.53
2018-09-03T04:13:13.394Z,16.17
2018-09-03T04:15:42.251Z,14.20
2018-09-03T04:18:11.005Z,15.60
2018-09-03T04:20:39.809Z,17.00
2018-09-03T04:23:08.743Z,15.55
2018-09-03T04:25:37.409Z,15.98
2018-09-03T04:28:06.327Z,16.35
2018-09-03T04:30:35.258Z,16.52
2018-09-03T04:33:04.092Z,15.35
2018-09-03T04:35:32.860Z,16.48
2018-09-03T04:38:02.184Z,16.48
2018-09-03T04:40:33.691Z,15.38
2018-09-03T04:43:02.503Z,15.80
2018-09-03T04:45:32.683Z,16.52
2018-09-03T04:48:02.317Z,16.00
2018-09-03T04:50:32.393Z,16.00
2018-09-03T04:53:01.817Z,15.80
2018-09-03T04:55:30.750Z,16.12
2018-09-03T04:57:59.549Z,16.10
2018-09-03T05:00:28.333Z,16.60
2018-09-03T05:02:57.229Z,17.07
2018-09-03T05:05:26.058Z,16.15
2018-09-03T05:07:55.584Z,15.83
2018-09-03T05:10:24.500Z,16.37
2018-09-03T05:12:53.310Z,16.40
2018-09-03T05:15:22.103Z,17.30
2018-09-03T05:17:51.005Z,15.75
2018-09-03T05:20:19.910Z,16.83
2018-09-03T05:22:48.690Z,16.27
2018-09-03T05:25:17.573Z,17.80
2018-09-03T05:27:46.368Z,17.27
2018-09-03T05:30:15.207Z,16.77
2018-09-03T05:32:44.060Z,35.70
2018-09-03T05:35:16.192Z,23.07
2018-09-03T05:37:45.176Z,18.48
2018-09-03T05:40:14.993Z,17.57
2018-09-03T05:42:45.572Z,17.10
2018-09-03T05:45:16.080Z,17.63
2018-09-03T05:47:45.254Z,18.55
2018-09-03T05:50:15.376Z,17.07
2018-09-03T05:52:45.685Z,17.37
2018-09-03T05:55:14.487Z,17.80
2018-09-03T05:57:43.285Z,17.65
2018-09-03T06:00:12.454Z,17.20
2018-09-03T06:02:41.300Z,17.77
2018-09-03T06:05:10.120Z,17.32
2018-09-03T06:07:40.255Z,18.10
2018-09-03T06:10:09.213Z,18.67
2018-09-03T06:12:38.643Z,17.70
2018-09-03T06:15:07.590Z,18.32
2018-09-03T06:17:36.401Z,19.25
2018-09-03T06:20:05.483Z,18.42
2018-09-03T06:22:34.372Z,19.00
2018-09-03T06:25:03.379Z,17.85
2018-09-03T06:27:32.183Z,17.90
2018-09-03T06:30:01.023Z,18.92
2018-09-03T06:32:29.833Z,18.00
2018-09-03T06:34:58.674Z,17.15
2018-09-03T06:37:27.521Z,16.77
2018-09-03T06:39:56.346Z,17.75
2018-09-03T06:42:25.334Z,18.32
2018-09-03T06:44:54.256Z,17.60
2018-09-03T06:47:23.279Z,17.37
2018-09-03T06:49:52.226Z,16.40
2018-09-03T06:52:21.041Z,16.10
2018-09-03T06:54:50.915Z,16.97
2018-09-03T06:57:19.740Z,17.60
2018-09-03T06:59:49.968Z,16.82
2018-09-03T07:02:18.821Z,17.82
2018-09-03T07:05:07.605Z,16.55
2018-09-03T07:07:43.531Z,15.25
2018-09-03T07:10:23.958Z,16.00
2018-09-03T07:13:01.364Z,16.10
2018-09-03T07:15:33.251Z,17.45
2018-09-03T07:18:14.034Z,16.55
2018-09-03T07:20:53.487Z,15.65
2018-09-03T07:23:26.389Z,15.78
2018-09-03T07:26:04.904Z,14.93
2018-09-03T07:28:48.165Z,15.40
2018-09-03T07:31:27.139Z,14.68
2018-09-03T07:34:04.868Z,13.15
2018-09-03T07:36:53.609Z,12.70
2018-09-03T07:39:38.125Z,13.10
2018-09-03T07:42:22.845Z,13.50
2018-09-03T07:45:03.637Z,12.30
2018-09-03T07:47:46.143Z,12.95
2018-09-03T07:50:33.832Z,13.28
2018-09-03T07:53:26.864Z,12.43
2018-09-03T07:56:19.139Z,11.43
2018-09-03T07:59:17.119Z,11.85
2018-09-03T08:02:01.806Z,11.48
2018-09-03T08:04:52.319Z,10.82
2018-09-03T08:07:48.304Z,11.10
2018-09-03T08:10:19.304Z,10.23
2018-09-03T08:13:03.749Z,11.55
2018-09-03T08:15:40.474Z,11.73
2018-09-03T08:18:18.423Z,10.13
2018-09-03T08:20:55.126Z,10.98
2018-09-03T08:23:34.302Z,11.33
2018-09-03T08:26:16.176Z,10.32
2018-09-03T08:28:53.161Z,11.53
2018-09-03T08:31:34.258Z,9.85
2018-09-03T08:34:10.446Z,10.53
2018-09-03T08:36:49.010Z,11.57
2018-09-03T08:39:28.313Z,10.25
2018-09-03T08:42:19.989Z,10.25
2018-09-03T08:44:57.204Z,10.43
2018-09-03T08:47:40.388Z,9.95
2018-09-03T08:50:16.348Z,10.63
2018-09-03T08:52:46.170Z,10.90
2018-09-03T08:55:14.990Z,9.50
2018-09-03T08:57:43.920Z,9.85
2018-09-03T09:00:13.211Z,9.83
2018-09-03T09:02:43.408Z,9.08
2018-09-03T09:05:13.107Z,9.73
2018-09-03T09:07:42.051Z,9.30
2018-09-03T09:10:22.454Z,8.43
2018-09-03T09:12:51.294Z,9.68
2018-09-03T09:15:20.322Z,9.30
2018-09-03T09:17:50.266Z,9.83
2018-09-03T09:20:21.958Z,7.90
2018-09-03T09:22:52.534Z,8.43
2018-09-03T09:25:23.570Z,8.77
2018-09-03T09:27:55.687Z,8.05
2018-09-03T09:30:25.355Z,8.60
2018-09-03T09:32:54.509Z,8.43
2018-09-03T09:35:23.456Z,8.17
2018-09-03T09:37:52.534Z,9.08
2018-09-03T09:40:22.144Z,8.70
2018-09-03T09:42:52.076Z,9.65
2018-09-03T09:45:29.560Z,9.13
2018-09-03T09:47:58.445Z,8.48
2018-09-03T09:50:27.289Z,8.83
2018-09-03T09:52:57.081Z,8.95
2018-09-03T09:55:29.126Z,8.60
2018-09-03T09:58:01.579Z,8.88
2018-09-03T10:00:36.258Z,8.85
2018-09-03T10:03:05.888Z,10.20
2018-09-03T10:05:44.927Z,9.00
2018-09-03T10:08:14.152Z,8.70
2018-09-03T10:10:51.448Z,9.30
2018-09-03T10:13:20.413Z,10.05
2018-09-03T10:16:03.093Z,9.83
2018-09-03T10:18:36.368Z,10.00
2018-09-03T10:21:09.057Z,8.18
2018-09-03T10:23:41.779Z,8.00
2018-09-03T10:26:12.377Z,8.50
2018-09-03T10:28:43.291Z,7.80
2018-09-03T10:31:16.833Z,8.95
2018-09-03T10:33:45.847Z,8.83
2018-09-03T10:36:27.354Z,9.38
2018-09-03T10:39:06.224Z,8.55
2018-09-03T10:41:35.212Z,8.13
2018-09-03T10:44:05.995Z,9.08
2018-09-03T10:46:50.336Z,7.87
2018-09-03T10:49:21.253Z,8.75
2018-09-03T10:51:50.154Z,8.83
2018-09-03T10:54:47.934Z,9.43
2018-09-03T10:57:27.180Z,8.98
2018-09-03T11:00:18.450Z,8.38
2018-09-03T11:03:21.752Z,9.23
2018-09-03T11:06:01.019Z,8.68
2018-09-03T11:08:50.318Z,9.53
2018-09-03T11:11:42.753Z,8.63
2018-09-03T11:14:15.027Z,8.13
2018-09-03T11:16:49.138Z,9.60
2018-09-03T11:19:19.484Z,8.33
2018-09-03T11:21:48.341Z,8.90
2018-09-03T11:24:17.159Z,8.90
2018-09-03T11:26:46.032Z,10.10
2018-09-03T11:29:14.835Z,9.88
2018-09-03T11:31:43.718Z,9.40
2018-09-03T11:34:12.536Z,10.08
2018-09-03T11:36:41.358Z,9.28
2018-09-03T11:39:11.825Z,8.95
2018-09-03T11:41:41.061Z,9.95
2018-09-03T11:44:09.888Z,9.73
2018-09-03T11:46:38.714Z,10.35
2018-09-03T11:49:07.631Z,10.60
2018-09-03T11:51:36.450Z,10.40
2018-09-03T11:54:05.303Z,9.93
2018-09-03T11:56:34.154Z,9.58
2018-09-03T11:59:03.075Z,10.18
2018-09-03T12:01:31.881Z,10.80
2018-09-03T12:04:00.722Z,11.08
2018-09-03T12:06:29.597Z,9.53
2018-09-03T12:08:58.577Z,9.38
2018-09-03T12:11:27.386Z,10.82
2018-09-03T12:13:56.550Z,10.48
2018-09-03T12:16:27.350Z,10.30
2018-09-03T12:18:59.621Z,10.35
2018-09-03T12:21:28.447Z,9.50
2018-09-03T12:23:57.377Z,10.90
2018-09-03T12:26:26.221Z,10.18
2018-09-03T12:28:55.070Z,10.20
2018-09-03T12:31:24.052Z,9.73
2018-09-03T12:33:52.854Z,11.60
2018-09-03T12:36:21.673Z,11.43
2018-09-03T12:38:50.465Z,10.58
2018-09-03T12:41:19.414Z,10.53
2018-09-03T12:43:48.381Z,10.98
2018-09-03T12:46:17.254Z,11.33
2018-09-03T12:48:46.040Z,11.63
2018-09-03T12:51:14.960Z,11.63
2018-09-03T12:53:43.841Z,11.63
2018-09-03T12:56:12.729Z,12.53
2018-09-03T12:58:42.594Z,12.82
2018-09-03T13:01:11.499Z,12.53
2018-09-03T13:03:40.376Z,14.68
2018-09-03T13:06:09.408Z,14.53
2018-09-03T13:08:38.198Z,13.48
2018-09-03T13:11:07.052Z,13.62
2018-09-03T13:13:36.002Z,15.53
2018-09-03T13:16:04.978Z,21.73
2018-09-03T13:18:33.803Z,13.90
2018-09-03T13:21:02.707Z,17.98
2018-09-03T13:23:31.641Z,14.85
2018-09-03T13:26:00.511Z,14.10
2018-09-03T13:28:29.361Z,14.03
2018-09-03T13:30:58.974Z,14.43
2018-09-03T13:33:27.901Z,13.90
2018-09-03T13:35:56.828Z,13.15
2018-09-03T13:38:25.741Z,12.65
2018-09-03T13:40:54.680Z,14.95
2018-09-03T13:43:23.605Z,11.78
2018-09-03T13:45:52.413Z,12.47
2018-09-03T13:48:21.267Z,13.18
2018-09-03T13:50:50.336Z,12.30
2018-09-03T13:53:19.126Z,13.78
2018-09-03T13:55:47.913Z,12.88
2018-09-03T13:58:16.826Z,13.05
2018-09-03T14:00:45.661Z,13.72
2018-09-03T14:03:14.626Z,13.88
2018-09-03T14:05:43.576Z,13.75
2018-09-03T14:08:12.453Z,13.55
2018-09-03T14:10:41.275Z,13.38
2018-09-03T14:13:10.132Z,14.35
2018-09-03T14:15:39.105Z,13.98
2018-09-03T14:18:08.226Z,13.60
2018-09-03T14:20:37.143Z,14.07
2018-09-03T14:23:06.407Z,14.28
2018-09-03T14:25:35.309Z,15.35
2018-09-03T14:28:08.833Z,15.68
2018-09-03T14:30:37.699Z,15.90
2018-09-03T14:33:06.618Z,16.55
2018-09-03T14:35:35.456Z,15.83
2018-09-03T14:38:04.268Z,17.40
2018-09-03T14:40:33.144Z,16.05
2018-09-03T14:43:02.026Z,16.50
2018-09-03T14:45:30.877Z,15.83
2018-09-03T14:47:59.699Z,16.55
2018-09-03T14:50:28.563Z,16.27
2018-09-03T14:52:57.806Z,16.60
2018-09-03T14:55:26.628Z,16.70
2018-09-03T14:57:55.489Z,18.70
2018-09-03T15:00:24.321Z,15.20
2018-09-03T15:02:53.234Z,15.25
2018-09-03T15:05:22.278Z,15.27
2018-09-03T15:07:51.115Z,14.58
2018-09-03T15:10:20.043Z,14.23
2018-09-03T15:12:48.915Z,13.85
2018-09-03T15:15:24.493Z,13.93
2018-09-03T15:17:53.373Z,13.32
2018-09-03T15:20:22.217Z,13.83
2018-09-03T15:22:51.093Z,12.95
2018-09-03T15:25:19.979Z,13.10
2018-09-03T15:27:48.839Z,13.28
2018-09-03T15:30:32.813Z,12.70
2018-09-03T15:33:02.083Z,18.75
2018-09-03T15:35:33.936Z,13.78
2018-09-03T15:38:03.272Z,12.70
2018-09-03T15:40:32.590Z,13.08
2018-09-03T15:43:05.342Z,13.30
2018-09-03T15:45:34.957Z,13.68
2018-09-03T15:48:04.093Z,13.05
2018-09-03T15:50:33.027Z,11.93
2018-09-03T15:53:01.940Z,12.93
2018-09-03T15:55:30.757Z,11.95
2018-09-03T15:58:05.956Z,12.63
2018-09-03T16:00:50.222Z,13.10
2018-09-03T16:03:24.220Z,12.88
2018-09-03T16:05:54.671Z,13.20
2018-09-03T16:08:24.227Z,13.80
2018-09-03T16:10:57.516Z,12.75
2018-09-03T16:13:31.279Z,12.37
2018-09-03T16:16:04.668Z,12.95
2018-09-03T16:18:38.379Z,13.18
2018-09-03T16:21:10.273Z,12.35
2018-09-03T16:23:39.943Z,12.18
2018-09-03T16:26:09.549Z,12.37
2018-09-03T16:28:45.999Z,12.65
2018-09-03T16:31:23.084Z,13.43
2018-09-03T16:33:54.779Z,12.13
2018-09-03T16:36:24.913Z,12.15
2018-09-03T16:38:54.410Z,12.07
2018-09-03T16:41:24.937Z,11.97
2018-09-03T16:43:54.860Z,11.75
2018-09-03T16:46:25.086Z,12.25
2018-09-03T16:48:54.548Z,12.55
2018-09-03T16:51:25.421Z,12.65
2018-09-03T16:53:59.462Z,12.20
2018-09-03T16:56:28.226Z,12.53
2018-09-03T16:58:57.128Z,11.90
2018-09-03T17:01:26.168Z,12.85
2018-09-03T17:03:54.785Z,12.50
2018-09-03T17:06:23.607Z,11.75
2018-09-03T17:08:52.498Z,12.78
2018-09-03T17:11:21.756Z,11.90
2018-09-03T17:13:51.454Z,11.53
2018-09-03T17:16:24.778Z,13.32
2018-09-03T17:18:53.859Z,13.05
2018-09-03T17:21:22.783Z,12.28
2018-09-03T17:23:53.007Z,12.47
2018-09-03T17:26:22.035Z,12.17
2018-09-03T17:28:51.339Z,12.28
2018-09-03T17:31:20.228Z,12.75
2018-09-03T17:33:49.037Z,12.18
2018-09-03T17:36:18.128Z,12.20
2018-09-03T17:38:47.493Z,12.10
2018-09-03T17:41:17.144Z,12.53
2018-09-03T17:43:46.244Z,11.90
2018-09-03T17:46:15.370Z,11.78
2018-09-03T17:48:44.211Z,12.43
2018-09-03T17:51:13.286Z,14.80
2018-09-03T17:53:42.251Z,13.25
2018-09-03T17:56:12.625Z,12.20
2018-09-03T17:58:41.447Z,12.45
2018-09-03T18:01:10.305Z,12.35
2018-09-03T18:03:39.209Z,12.35
2018-09-03T18:06:08.117Z,11.90
2018-09-03T18:08:37.331Z,12.70
2018-09-03T18:11:06.244Z,12.50
2018-09-03T18:13:35.476Z,11.55
2018-09-03T18:16:04.342Z,13.13
2018-09-03T18:18:33.999Z,11.57
2018-09-03T18:21:09.637Z,12.43
2018-09-03T18:23:38.868Z,11.57
2018-09-03T18:26:07.684Z,13.25
2018-09-03T18:28:36.612Z,12.03
2018-09-03T18:31:05.460Z,12.37
2018-09-03T18:33:34.412Z,12.47
2018-09-03T18:36:03.298Z,14.73
2018-09-03T18:38:32.231Z,15.98
2018-09-03T18:41:01.066Z,13.90
2018-09-03T18:43:30.042Z,14.13
2018-09-03T18:45:59.010Z,14.43
2018-09-03T18:48:27.851Z,14.83
2018-09-03T18:50:56.752Z,15.32
2018-09-03T18:53:25.612Z,16.02
2018-09-03T18:55:54.461Z,15.63
2018-09-03T18:58:23.395Z,16.10
2018-09-03T19:00:52.346Z,15.40
2018-09-03T19:03:21.226Z,16.15
2018-09-03T19:05:50.066Z,15.75
2018-09-03T19:08:18.878Z,17.73
2018-09-03T19:10:47.712Z,17.50
2018-09-03T19:13:16.592Z,16.65
2018-09-03T19:15:45.382Z,16.55
2018-09-03T19:18:14.280Z,16.45
2018-09-03T19:20:43.104Z,15.25
2018-09-03T19:23:11.933Z,15.45
2018-09-03T19:25:40.716Z,14.87
2018-09-03T19:28:09.615Z,16.25
2018-09-03T19:30:38.421Z,16.07
2018-09-03T19:33:07.911Z,15.83
2018-09-03T19:35:36.766Z,15.85
2018-09-03T19:38:05.616Z,17.00
2018-09-03T19:40:34.671Z,15.43
2018-09-03T19:43:03.500Z,15.20
2018-09-03T19:45:32.345Z,15.30
2018-09-03T19:48:01.118Z,15.35
2018-09-03T19:50:29.943Z,14.68
2018-09-03T19:52:58.756Z,14.95
2018-09-03T19:55:27.595Z,16.02
2018-09-03T19:57:56.564Z,16.23
2018-09-03T20:00:25.320Z,16.67
2018-09-03T20:02:54.139Z,16.62
2018-09-03T20:05:23.040Z,17.27
2018-09-03T20:07:51.846Z,15.93
2018-09-03T20:10:20.590Z,16.45
2018-09-03T20:12:49.416Z,15.85
2018-09-03T20:15:23.454Z,16.53
2018-09-03T20:17:52.430Z,16.55
2018-09-03T20:20:21.219Z,17.20
2018-09-03T20:22:50.101Z,16.80
2018-09-03T20:25:18.908Z,17.05
2018-09-03T20:27:47.695Z,17.70
2018-09-03T20:30:16.466Z,17.47
2018-09-03T20:32:45.303Z,18.23
2018-09-03T20:35:14.144Z,17.87
2018-09-03T20:37:42.931Z,18.25
2018-09-03T20:40:11.755Z,17.73
2018-09-03T20:42:40.539Z,19.20
2018-09-03T20:45:09.535Z,18.17
2018-09-03T20:47:38.711Z,17.25
2018-09-03T20:50:08.138Z,16.50
2018-09-03T20:52:36.952Z,17.12
2018-09-03T20:55:06.664Z,17.80
2018-09-03T20:57:35.406Z,18.57
2018-09-03T21:00:04.188Z,17.02
2018-09-03T21:02:33.008Z,17.40
2018-09-03T21:05:01.807Z,17.30
2018-09-03T21:07:30.626Z,17.07
2018-09-03T21:09:59.476Z,17.42
2018-09-03T21:12:28.262Z,16.23
2018-09-03T21:14:57.012Z,15.93
2018-09-03T21:17:25.766Z,16.95
2018-09-03T21:19:54.537Z,15.88
2018-09-03T21:22:23.256Z,16.95
2018-09-03T21:24:52.010Z,16.42
2018-09-03T21:27:20.798Z,16.15
2018-09-03T21:29:49.549Z,16.62
2018-09-03T21:32:18.393Z,16.62
2018-09-03T21:34:47.170Z,15.72
2018-09-03T21:37:16.011Z,16.20
2018-09-03T21:39:44.853Z,13.72
2018-09-03T21:42:13.646Z,14.55
2018-09-03T21:44:42.485Z,14.43
2018-09-03T21:47:11.255Z,15.13
2018-09-03T21:49:39.996Z,13.68
2018-09-03T21:52:08.771Z,14.95
2018-09-03T21:54:37.544Z,13.93
2018-09-03T21:57:06.317Z,15.25
2018-09-03T21:59:35.085Z,14.55
2018-09-03T22:02:05.725Z,13.35
2018-09-03T22:04:34.517Z,13.13
2018-09-03T22:07:03.344Z,13.03
2018-09-03T22:09:32.158Z,13.60
2018-09-03T22:12:01.145Z,13.08
2018-09-03T22:14:29.890Z,13.72
2018-09-03T22:16:58.809Z,12.63
2018-09-03T22:19:27.672Z,13.22
2018-09-03T22:21:56.446Z,13.75
2018-09-03T22:24:25.283Z,12.63
2018-09-03T22:26:54.074Z,12.13
2018-09-03T22:29:22.889Z,12.40
2018-09-03T22:31:51.715Z,12.73
2018-09-03T22:34:20.457Z,11.63
2018-09-03T22:36:49.326Z,13.03
2018-09-03T22:39:18.161Z,12.43
2018-09-03T22:41:46.935Z,11.30
2018-09-03T22:44:15.654Z,11.90
2018-09-03T22:46:44.387Z,11.18
2018-09-03T22:49:13.141Z,12.68
2018-09-03T22:51:41.937Z,11.60
2018-09-03T22:54:10.794Z,11.75
2018-09-03T22:56:39.509Z,11.50
2018-09-03T22:59:08.243Z,11.33
2018-09-03T23:01:37.078Z,11.50
2018-09-03T23:04:05.884Z,11.22
2018-09-03T23:06:34.618Z,11.83
2018-09-03T23:09:03.760Z,11.25
2018-09-03T23:11:32.547Z,11.78
2018-09-03T23:14:01.327Z,11.65
2018-09-03T23:16:30.146Z,12.53
2018-09-03T23:18:58.944Z,11.25
2018-09-03T23:21:27.757Z,11.80
2018-09-03T23:23:56.827Z,11.20
2018-09-03T23:26:25.948Z,11.20
2018-09-03T23:28:54.820Z,11.10
2018-09-03T23:31:23.697Z,11.90
2018-09-03T23:33:52.596Z,11.78
2018-09-03T23:36:21.434Z,12.00
2018-09-03T23:38:50.229Z,12.00
2018-09-03T23:41:18.978Z,12.43
2018-09-03T23:43:47.732Z,10.95
2018-09-03T23:46:16.500Z,11.93
2018-09-03T23:48:45.251Z,11.65
2018-09-03T23:51:14.051Z,11.65
2018-09-03T23:53:42.889Z,11.57
2018-09-03T23:56:11.727Z,12.65
2018-09-03T23:58:40.459Z,11.83
